MAPA DE AEROPUERTO

INFORMACIÓN METAR y TAF

METAR FOR GCFV
ADDS - METARS form results

(1528 UTC 24 October 2020)
Data provider http://aviationweather.gov/metar/data/
 
METAR text: GCFV 241500Z 05013KT CAVOK 24/16 Q1023
Conditions at: GCFV (FUERTEVENTURA AR, ES) observed 1500 UTC 24 October 2020
Temperature: 24.0°C (75°F)
Dewpoint: 16.0°C (61°F) [RH = 61%]
Pressure (altimeter): 30.21 inches Hg (1023.0 mb)
Winds: from the NE (50 degrees) at 15 MPH (13 knots; 6.7 m/s)
Visibility: 6 or more miles (10+ km)
Ceiling: ceiling and visibility are OK
Clouds: unknown
Weather: no significant weather observed at this time

METAR text: GCFV 241430Z 05013KT 9999 FEW030 24/15 Q1023
Conditions at: GCFV (FUERTEVENTURA AR, ES) observed 1430 UTC 24 October 2020
Temperature: 24.0°C (75°F)
Dewpoint: 15.0°C (59°F) [RH = 57%]
Pressure (altimeter): 30.21 inches Hg (1023.0 mb)
Winds: from the NE (50 degrees) at 15 MPH (13 knots; 6.7 m/s)
Visibility: 6 or more miles (10+ km)
Ceiling: at least 12,000 feet AGL
Clouds: few clouds at 3000 feet AGL
Weather: no significant weather observed at this time

Forecast for: GCFV (FUERTEVENTURA AR, ES)
Text: TAF GCFV 241400Z 2415/2515 05016KT 9999 FEW030 TX24/2514Z TN20/2507Z
Forecast period: 1500 UTC 24 October 2020 to 1500 UTC 25 October 2020
Forecast type: FROM: standard forecast or significant change
Winds: from the NE (50 degrees) at 18 MPH (16 knots; 8.2 m/s)
Visibility: 6 or more miles (10+ km)
Ceiling: at least 12,000 feet AGL
Clouds: few clouds at 3000 feet AGL
Weather: no significant weather forecast for this period